createdAt,value
2023-04-11T00:00:13.277Z,50.60
2023-04-11T00:02:40.629Z,44.95
2023-04-11T00:05:08.611Z,48.92
2023-04-11T00:07:36.117Z,48.05
2023-04-11T00:10:03.682Z,52.78
2023-04-11T00:12:31.323Z,46.67
2023-04-11T00:14:58.395Z,51.00
2023-04-11T00:17:25.501Z,47.88
2023-04-11T00:20:13.196Z,43.72
2023-04-11T00:22:40.791Z,47.97
2023-04-11T00:25:08.253Z,46.55
2023-04-11T00:27:35.531Z,44.83
2023-04-11T00:30:02.983Z,43.97
2023-04-11T00:32:30.790Z,44.88
2023-04-11T00:34:57.898Z,55.58
2023-04-11T00:37:25.625Z,60.72
2023-04-11T00:39:55.864Z,59.90
2023-04-11T00:42:22.963Z,58.17
2023-04-11T00:44:51.161Z,49.60
2023-04-11T00:47:18.956Z,51.92
2023-04-11T00:49:46.792Z,50.83
2023-04-11T00:52:14.071Z,53.53
2023-04-11T00:54:41.332Z,80.90
2023-04-11T00:57:08.677Z,58.03
2023-04-11T00:59:35.970Z,50.60
2023-04-11T01:02:03.233Z,52.78
2023-04-11T01:04:30.755Z,59.20
2023-04-11T01:07:06.118Z,50.63
2023-04-11T01:09:35.929Z,49.63
2023-04-11T01:12:05.414Z,58.75
2023-04-11T01:14:32.584Z,48.47
2023-04-11T01:17:02.312Z,48.00
2023-04-11T01:19:30.972Z,51.42
2023-04-11T01:21:59.595Z,44.90
2023-04-11T01:24:26.795Z,44.97
2023-04-11T01:26:54.679Z,53.33
2023-04-11T01:29:21.848Z,45.58
2023-04-11T01:31:50.999Z,43.33
2023-04-11T01:34:19.408Z,42.67
2023-04-11T01:36:47.814Z,44.92
2023-04-11T01:39:15.459Z,44.67
2023-04-11T01:41:43.354Z,41.30
2023-04-11T01:44:10.525Z,37.85
2023-04-11T01:46:37.724Z,52.08
2023-04-11T01:49:06.524Z,69.57
2023-04-11T01:51:33.704Z,65.90
2023-04-11T01:54:01.011Z,60.05
2023-04-11T01:56:28.198Z,44.53
2023-04-11T01:58:59.106Z,62.60
2023-04-11T02:01:26.910Z,64.65
2023-04-11T02:03:54.203Z,60.85
2023-04-11T02:06:21.382Z,60.33
2023-04-11T02:08:48.502Z,54.53
2023-04-11T02:11:15.612Z,53.95
2023-04-11T02:13:42.747Z,49.13
2023-04-11T02:16:15.425Z,45.50
2023-04-11T02:18:44.293Z,56.63
2023-04-11T02:21:11.767Z,47.95
2023-04-11T02:23:38.913Z,51.22
2023-04-11T02:26:06.600Z,48.03
2023-04-11T02:28:34.122Z,60.08
2023-04-11T02:31:03.062Z,43.30
2023-04-11T02:33:30.309Z,45.92
2023-04-11T02:35:57.597Z,41.03
2023-04-11T02:38:24.721Z,43.28
2023-04-11T02:40:51.814Z,43.33
2023-04-11T02:43:18.935Z,44.13
2023-04-11T02:45:46.633Z,56.88
2023-04-11T02:48:14.482Z,54.03
2023-04-11T02:53:12.358Z,48.88
2023-04-11T02:55:46.876Z,46.13
2023-04-11T02:58:18.075Z,55.25
2023-04-11T03:00:49.697Z,46.05
2023-04-11T03:03:17.460Z,48.78
2023-04-11T03:05:47.392Z,52.30
2023-04-11T03:08:18.379Z,51.40
2023-04-11T03:10:51.495Z,49.75
2023-04-11T03:13:20.059Z,58.17
2023-04-11T03:15:47.419Z,48.13
2023-04-11T03:18:16.150Z,51.45
2023-04-11T03:20:46.995Z,44.47
2023-04-11T03:23:15.884Z,42.65
2023-04-11T03:25:48.192Z,40.08
2023-04-11T03:28:16.675Z,45.35
2023-04-11T03:30:43.955Z,45.65
2023-04-11T03:33:13.863Z,47.90
2023-04-11T03:35:40.981Z,49.33
2023-04-11T03:38:08.194Z,46.15
2023-04-11T03:40:35.839Z,41.03
2023-04-11T03:43:10.701Z,42.03
2023-04-11T03:45:37.873Z,41.75
2023-04-11T03:48:10.677Z,42.40
2023-04-11T03:50:49.028Z,45.13
2023-04-11T03:53:20.548Z,43.50
2023-04-11T03:55:50.119Z,46.25
2023-04-11T03:58:19.251Z,44.15
2023-04-11T04:00:46.564Z,39.85
2023-04-11T04:03:15.392Z,34.70
2023-04-11T04:05:43.463Z,38.95
2023-04-11T04:08:13.227Z,37.65
2023-04-11T04:10:47.167Z,35.03
2023-04-11T04:13:15.345Z,40.95
2023-04-11T04:15:51.663Z,34.33
2023-04-11T04:18:23.660Z,32.50
2023-04-11T04:20:51.378Z,33.97
2023-04-11T04:23:20.198Z,34.88
2023-04-11T04:25:58.282Z,36.00
2023-04-11T04:28:28.430Z,37.75
2023-04-11T04:30:58.657Z,33.10
2023-04-11T04:33:33.221Z,32.53
2023-04-11T04:36:04.468Z,40.00
2023-04-11T04:38:38.581Z,37.03
2023-04-11T04:41:15.228Z,34.25
2023-04-11T04:43:46.482Z,33.22
2023-04-11T04:46:23.710Z,26.98
2023-04-11T04:48:52.271Z,31.95
2023-04-11T04:51:19.423Z,37.30
2023-04-11T04:53:46.707Z,28.92
2023-04-11T04:56:16.557Z,25.70
2023-04-11T04:58:47.536Z,33.67
2023-04-11T05:01:17.150Z,31.65
2023-04-11T05:03:46.940Z,33.78
2023-04-11T05:06:22.374Z,41.20
2023-04-11T05:08:50.428Z,43.63
2023-04-11T05:11:17.872Z,47.20
2023-04-11T05:13:45.052Z,46.65
2023-04-11T05:16:12.933Z,53.15
2023-04-11T05:18:40.122Z,47.08
2023-04-11T05:21:07.418Z,41.45
2023-04-11T05:23:38.244Z,60.08
2023-04-11T05:26:10.419Z,47.78
2023-04-11T05:28:41.608Z,63.72
2023-04-11T05:31:13.119Z,68.60
2023-04-11T05:33:42.179Z,60.05
2023-04-11T05:36:14.512Z,63.53
2023-04-11T05:38:42.749Z,60.05
2023-04-11T05:41:11.125Z,57.03
2023-04-11T05:43:38.700Z,64.32
2023-04-11T05:46:08.131Z,55.63
2023-04-11T05:48:36.061Z,49.72
2023-04-11T05:51:03.193Z,49.30
2023-04-11T05:53:32.060Z,46.60
2023-04-11T05:58:30.122Z,49.00
2023-04-11T06:00:59.566Z,55.55
2023-04-11T06:03:27.586Z,51.25
2023-04-11T06:05:55.189Z,44.15
2023-04-11T06:08:23.121Z,41.70
2023-04-11T06:10:50.407Z,45.28
2023-04-11T06:13:17.872Z,43.33
2023-04-11T06:15:45.750Z,57.80
2023-04-11T06:18:13.707Z,50.88
2023-04-11T06:20:41.065Z,75.43
2023-04-11T06:23:08.569Z,52.17
2023-04-11T06:25:36.032Z,44.17
2023-04-11T06:28:03.295Z,48.30
2023-04-11T06:30:30.551Z,53.83
2023-04-11T06:32:58.203Z,61.25
2023-04-11T06:35:25.720Z,44.08
2023-04-11T06:37:53.276Z,55.90
2023-04-11T06:40:20.935Z,64.85
2023-04-11T06:42:48.450Z,57.13
2023-04-11T06:45:18.299Z,52.72
2023-04-11T06:47:45.727Z,54.00
2023-04-11T06:50:13.242Z,55.47
2023-04-11T06:52:40.526Z,46.42
2023-04-11T06:55:08.554Z,44.17
2023-04-11T06:57:35.901Z,43.10
2023-04-11T07:00:06.962Z,42.35
2023-04-11T07:02:37.358Z,45.65
2023-04-11T07:05:06.073Z,60.53
2023-04-11T07:07:33.519Z,57.50
2023-04-11T07:10:00.982Z,59.08
2023-04-11T07:12:28.339Z,63.70
2023-04-11T07:14:55.652Z,52.92
2023-04-11T07:17:22.956Z,38.85
2023-04-11T07:19:50.072Z,59.00
2023-04-11T07:22:17.230Z,65.80
2023-04-11T07:24:46.821Z,47.33
2023-04-11T07:27:17.794Z,52.72
2023-04-11T07:32:12.087Z,55.33
2023-04-11T07:34:39.328Z,57.08
2023-04-11T07:37:06.544Z,43.45
2023-04-11T07:39:34.130Z,39.67
2023-04-11T07:42:01.955Z,45.13
2023-04-11T07:44:29.130Z,40.50
2023-04-11T07:46:56.287Z,31.08
2023-04-11T07:49:23.521Z,30.45
2023-04-11T07:51:50.723Z,35.72
2023-04-11T07:54:17.871Z,40.35
2023-04-11T07:56:45.616Z,43.80
2023-04-11T07:59:16.125Z,35.58
2023-04-11T08:04:11.347Z,32.25
2023-04-11T08:06:38.730Z,28.45
2023-04-11T08:09:05.901Z,37.92
2023-04-11T08:11:33.310Z,36.42
2023-04-11T08:14:00.581Z,36.78
2023-04-11T08:16:27.927Z,44.88
2023-04-11T08:18:55.217Z,37.03
2023-04-11T08:21:25.235Z,35.65
2023-04-11T08:23:52.702Z,39.53
2023-04-11T08:26:20.210Z,33.55
2023-04-11T08:28:47.462Z,39.40
2023-04-11T08:31:15.617Z,29.90
2023-04-11T08:33:43.041Z,35.08
2023-04-11T08:36:13.134Z,35.17
2023-04-11T08:38:41.001Z,34.80
2023-04-11T08:41:08.670Z,32.78
2023-04-11T08:43:37.947Z,34.95
2023-04-11T08:46:05.868Z,31.08
2023-04-11T08:48:33.091Z,38.03
2023-04-11T08:51:00.468Z,31.75
2023-04-11T08:53:28.225Z,30.65
2023-04-11T08:55:55.445Z,29.77
2023-04-11T08:58:23.180Z,33.95
2023-04-11T09:00:50.584Z,27.30
2023-04-11T09:03:18.072Z,31.05
2023-04-11T09:05:47.088Z,28.85
2023-04-11T09:08:16.421Z,37.25
2023-04-11T09:10:45.736Z,26.27
2023-04-11T09:13:21.562Z,34.88
2023-04-11T09:16:09.287Z,28.42
2023-04-11T09:18:38.927Z,28.63
2023-04-11T09:21:17.051Z,25.30
2023-04-11T09:23:44.429Z,25.98
2023-04-11T09:26:12.715Z,26.58
2023-04-11T09:28:54.039Z,32.50
2023-04-11T09:31:22.220Z,25.38
2023-04-11T09:33:57.647Z,26.95
2023-04-11T09:36:29.389Z,25.73
2023-04-11T09:38:57.753Z,32.17
2023-04-11T09:41:32.930Z,24.73
2023-04-11T09:44:01.009Z,26.33
2023-04-11T09:46:28.714Z,26.98
2023-04-11T09:48:56.896Z,30.63
2023-04-11T09:53:55.849Z,28.90
2023-04-11T09:56:26.853Z,21.10
2023-04-11T09:58:55.164Z,23.88
2023-04-11T10:01:24.517Z,21.67
2023-04-11T10:03:53.061Z,24.98
2023-04-11T10:06:35.081Z,25.33
2023-04-11T10:09:11.854Z,22.27
2023-04-11T10:11:45.199Z,24.63
2023-04-11T10:14:37.012Z,28.55
2023-04-11T10:17:19.654Z,22.48
2023-04-11T10:19:49.591Z,23.33
2023-04-11T10:22:59.589Z,24.27
2023-04-11T10:25:28.023Z,27.95
2023-04-11T10:28:04.033Z,28.40
2023-04-11T10:30:42.014Z,24.33
2023-04-11T10:33:17.712Z,27.75
2023-04-11T10:36:12.867Z,22.05
2023-04-11T10:38:41.034Z,19.02
2023-04-11T10:41:21.755Z,30.25
2023-04-11T10:46:21.090Z,28.02
2023-04-11T10:49:01.734Z,20.65
2023-04-11T10:54:02.086Z,26.15
2023-04-11T10:56:49.032Z,30.80
2023-04-11T10:59:31.637Z,26.73
2023-04-11T11:02:02.998Z,22.77
2023-04-11T11:04:37.260Z,23.92
2023-04-11T11:07:06.534Z,21.90
2023-04-11T11:09:36.938Z,24.55
2023-04-11T11:12:11.206Z,24.17
2023-04-11T11:14:41.073Z,23.42
2023-04-11T11:17:09.173Z,25.05
2023-04-11T11:19:36.707Z,26.50
2023-04-11T11:22:05.051Z,23.25
2023-04-11T11:24:32.719Z,23.73
2023-04-11T11:27:00.071Z,21.83
2023-04-11T11:29:33.994Z,23.40
2023-04-11T11:32:05.080Z,23.08
2023-04-11T11:34:34.710Z,23.25
2023-04-11T11:37:05.855Z,18.87
2023-04-11T11:39:34.539Z,23.27
2023-04-11T11:42:02.106Z,24.88
2023-04-11T11:44:31.251Z,24.98
2023-04-11T11:47:06.370Z,38.88
2023-04-11T11:49:49.682Z,20.73
2023-04-11T11:52:36.761Z,17.88
2023-04-11T11:55:10.430Z,23.38
2023-04-11T11:57:49.905Z,21.98
2023-04-11T12:00:28.158Z,21.05
2023-04-11T12:02:57.474Z,21.15
2023-04-11T12:05:30.383Z,29.63
2023-04-11T12:08:00.609Z,26.17
2023-04-11T12:10:37.810Z,30.52
2023-04-11T12:13:31.684Z,25.88
2023-04-11T12:16:01.686Z,23.00
2023-04-11T12:18:29.250Z,21.38
2023-04-11T12:20:56.601Z,23.27
2023-04-11T12:23:23.974Z,22.25
2023-04-11T12:25:51.230Z,23.05
2023-04-11T12:28:21.077Z,24.33
2023-04-11T12:30:48.504Z,23.48
2023-04-11T12:33:16.582Z,17.00
2023-04-11T12:35:43.936Z,29.95
2023-04-11T12:38:13.347Z,20.63
2023-04-11T12:40:43.750Z,24.90
2023-04-11T12:43:11.410Z,21.98
2023-04-11T12:45:39.276Z,19.17
2023-04-11T12:48:07.038Z,18.80
2023-04-11T12:50:34.401Z,27.17
2023-04-11T12:53:01.702Z,21.58
2023-04-11T12:55:29.189Z,24.88
2023-04-11T12:57:56.767Z,24.33
2023-04-11T13:00:24.124Z,23.52
2023-04-11T13:02:52.030Z,19.25
2023-04-11T13:05:19.970Z,19.15
2023-04-11T13:07:47.680Z,20.15
2023-04-11T13:10:16.387Z,18.27
2023-04-11T13:12:45.121Z,16.77
2023-04-11T13:15:14.527Z,18.10
2023-04-11T13:17:41.931Z,15.93
2023-04-11T13:20:11.189Z,17.45
2023-04-11T13:22:42.329Z,16.02
2023-04-11T13:25:10.973Z,15.38
2023-04-11T13:27:39.787Z,14.63
2023-04-11T13:30:08.567Z,16.83
2023-04-11T13:32:36.321Z,17.63
2023-04-11T13:35:04.372Z,14.20
2023-04-11T13:37:31.920Z,22.60
2023-04-11T13:39:59.387Z,22.15
2023-04-11T13:42:26.728Z,21.48
2023-04-11T13:44:54.109Z,21.33
2023-04-11T13:47:21.367Z,23.70
2023-04-11T13:49:48.572Z,17.35
2023-04-11T13:52:15.856Z,34.20
2023-04-11T13:54:43.053Z,35.80
2023-04-11T13:57:10.306Z,32.22
2023-04-11T13:59:37.498Z,28.15
2023-04-11T14:02:04.808Z,16.77
2023-04-11T14:04:32.177Z,19.48
2023-04-11T14:06:59.511Z,25.90
2023-04-11T14:09:26.686Z,22.23
2023-04-11T14:11:53.796Z,23.58
2023-04-11T14:14:20.940Z,16.20
2023-04-11T14:16:48.446Z,23.08
2023-04-11T14:19:15.806Z,22.90
2023-04-11T14:21:43.010Z,13.30
2023-04-11T14:24:10.245Z,15.63
2023-04-11T14:26:37.443Z,19.88
2023-04-11T14:29:04.811Z,14.25
2023-04-11T14:31:32.215Z,15.73
2023-04-11T14:33:59.593Z,19.08
2023-04-11T14:36:28.236Z,15.23
2023-04-11T14:38:55.481Z,17.45
2023-04-11T14:41:23.416Z,16.05
2023-04-11T14:43:50.897Z,17.27
2023-04-11T14:46:18.306Z,13.68
2023-04-11T14:48:45.538Z,14.77
2023-04-11T14:51:12.648Z,12.48
2023-04-11T14:53:39.837Z,14.77
2023-04-11T14:56:07.495Z,19.13
2023-04-11T14:58:34.841Z,18.77
2023-04-11T15:01:02.288Z,19.73
2023-04-11T15:03:29.719Z,15.75
2023-04-11T15:05:56.977Z,15.60
2023-04-11T15:08:25.726Z,13.40
2023-04-11T15:10:54.690Z,16.35
2023-04-11T15:13:22.850Z,15.23
2023-04-11T15:15:50.212Z,14.68
2023-04-11T15:18:21.668Z,12.55
2023-04-11T15:20:49.258Z,13.38
2023-04-11T15:23:17.154Z,14.55
2023-04-11T15:25:44.308Z,16.25
2023-04-11T15:28:11.550Z,17.75
2023-04-11T15:30:57.387Z,13.65
2023-04-11T15:33:24.880Z,32.53
2023-04-11T15:35:57.757Z,17.15
2023-04-11T15:38:25.996Z,15.60
2023-04-11T15:40:54.936Z,22.52
2023-04-11T15:43:23.035Z,18.48
2023-04-11T15:45:52.451Z,37.72
2023-04-11T15:48:19.828Z,39.33
2023-04-11T15:50:47.136Z,24.27
2023-04-11T15:53:14.299Z,36.20
2023-04-11T15:55:42.625Z,37.92
2023-04-11T15:58:10.096Z,22.77
2023-04-11T16:00:39.786Z,27.92
2023-04-11T16:03:08.494Z,25.47
2023-04-11T16:05:38.470Z,26.42
2023-04-11T16:08:07.079Z,30.42
2023-04-11T16:10:34.393Z,34.45
2023-04-11T16:13:02.406Z,42.25
2023-04-11T16:15:29.624Z,40.50
2023-04-11T16:17:56.783Z,39.95
2023-04-11T16:20:24.370Z,33.20
2023-04-11T16:22:51.547Z,38.67
2023-04-11T16:25:21.722Z,46.25
2023-04-11T16:27:51.298Z,42.90
2023-04-11T16:30:18.686Z,37.47
2023-04-11T16:32:45.966Z,36.40
2023-04-11T16:35:13.128Z,47.22
2023-04-11T16:37:40.416Z,49.67
2023-04-11T16:40:12.395Z,36.90
2023-04-11T16:42:40.564Z,38.65
2023-04-11T16:45:09.929Z,50.83
2023-04-11T16:47:37.226Z,39.90
2023-04-11T16:50:05.919Z,53.92
2023-04-11T16:52:33.141Z,33.03
2023-04-11T16:55:00.639Z,46.80
2023-04-11T16:57:28.083Z,52.58
2023-04-11T16:59:55.438Z,56.05
2023-04-11T17:02:22.628Z,67.25
2023-04-11T17:04:49.963Z,55.80
2023-04-11T17:07:17.423Z,57.15
2023-04-11T17:09:47.519Z,60.03
2023-04-11T17:12:14.755Z,44.83
2023-04-11T17:14:41.965Z,48.17
2023-04-11T17:17:09.181Z,62.42
2023-04-11T17:19:36.731Z,57.58
2023-04-11T17:22:06.056Z,58.70
2023-04-11T17:24:33.384Z,59.58
2023-04-11T17:27:00.541Z,70.90
2023-04-11T17:29:27.887Z,61.67
2023-04-11T17:31:55.034Z,64.32
2023-04-11T17:34:22.190Z,56.55
2023-04-11T17:36:49.521Z,47.88
2023-04-11T17:39:18.169Z,51.85
2023-04-11T17:41:46.102Z,50.35
2023-04-11T17:44:13.620Z,56.95
2023-04-11T17:46:41.285Z,49.60
2023-04-11T17:49:08.619Z,49.42
2023-04-11T17:51:38.825Z,46.00
2023-04-11T17:54:08.611Z,47.67
2023-04-11T17:56:36.149Z,44.95
2023-04-11T17:59:03.336Z,42.63
2023-04-11T18:01:32.539Z,60.83
2023-04-11T18:04:01.678Z,56.75
2023-04-11T18:06:29.844Z,43.20
2023-04-11T18:08:57.208Z,70.93
2023-04-11T18:11:24.675Z,55.97
2023-04-11T18:13:55.205Z,52.25
2023-04-11T18:16:23.105Z,54.97
2023-04-11T18:18:50.635Z,41.60
2023-04-11T18:21:21.593Z,44.35
2023-04-11T18:23:49.654Z,38.63
2023-04-11T18:26:16.954Z,37.63
2023-04-11T18:28:46.288Z,36.90
2023-04-11T18:31:14.669Z,31.23
2023-04-11T18:33:45.685Z,38.22
2023-04-11T18:36:13.980Z,40.88
2023-04-11T18:38:41.483Z,45.33
2023-04-11T18:41:09.190Z,45.03
2023-04-11T18:43:38.498Z,44.67
2023-04-11T18:46:07.925Z,43.03
2023-04-11T18:48:35.559Z,42.13
2023-04-11T18:51:04.379Z,42.83
2023-04-11T18:53:31.734Z,45.28
2023-04-11T18:56:03.111Z,52.20
2023-04-11T18:58:32.736Z,52.83
2023-04-11T19:01:13.954Z,52.47
2023-04-11T19:03:44.075Z,41.42
2023-04-11T19:06:11.736Z,50.00
2023-04-11T19:08:39.112Z,46.13
2023-04-11T19:11:06.264Z,65.05
2023-04-11T19:13:33.535Z,63.75
2023-04-11T19:16:01.149Z,71.40
2023-04-11T19:18:28.674Z,60.65
2023-04-11T19:20:55.939Z,62.75
2023-04-11T19:23:23.354Z,91.65
2023-04-11T19:25:50.704Z,111.75
2023-04-11T19:28:17.958Z,82.88
2023-04-11T19:30:45.369Z,80.38
2023-04-11T19:33:12.804Z,72.50
2023-04-11T19:35:42.243Z,96.97
2023-04-11T19:38:09.689Z,97.57
2023-04-11T19:40:37.033Z,82.45
2023-04-11T19:43:04.332Z,62.05
2023-04-11T19:45:32.505Z,91.40
2023-04-11T19:48:00.440Z,87.82
2023-04-11T19:50:28.016Z,86.78
2023-04-11T19:52:57.103Z,77.47
2023-04-11T19:55:24.858Z,76.78
2023-04-11T19:57:52.158Z,104.03
2023-04-11T20:00:19.565Z,92.30
2023-04-11T20:02:50.617Z,95.97
2023-04-11T20:05:19.497Z,68.75
2023-04-11T20:07:47.081Z,87.63
2023-04-11T20:10:15.461Z,74.53
2023-04-11T20:12:42.846Z,77.13
2023-04-11T20:15:10.753Z,68.65
2023-04-11T20:17:38.122Z,74.85
2023-04-11T20:20:06.609Z,95.90
2023-04-11T20:22:34.370Z,90.18
2023-04-11T20:25:01.688Z,68.65
2023-04-11T20:27:30.109Z,89.43
2023-04-11T20:29:58.074Z,91.80
2023-04-11T20:32:25.436Z,79.90
2023-04-11T20:34:52.905Z,88.15
2023-04-11T20:37:22.400Z,76.75
2023-04-11T20:39:51.663Z,78.30
2023-04-11T20:42:20.619Z,73.60
2023-04-11T20:44:47.992Z,78.32
2023-04-11T20:47:15.357Z,86.63
2023-04-11T20:49:45.771Z,76.78
2023-04-11T20:52:13.438Z,70.55
2023-04-11T20:54:41.204Z,72.10
2023-04-11T20:57:08.513Z,77.45
2023-04-11T20:59:38.009Z,63.80
2023-04-11T21:02:08.356Z,86.70
2023-04-11T21:04:35.871Z,92.05
2023-04-11T21:07:03.349Z,85.10
2023-04-11T21:09:30.811Z,84.25
2023-04-11T21:11:58.222Z,81.00
2023-04-11T21:14:25.419Z,82.07
2023-04-11T21:16:52.688Z,98.72
2023-04-11T21:19:19.971Z,95.43
2023-04-11T21:21:47.229Z,84.68
2023-04-11T21:24:14.535Z,78.25
2023-04-11T21:26:42.551Z,82.35
2023-04-11T21:29:12.036Z,87.72
2023-04-11T21:31:39.458Z,79.90
2023-04-11T21:34:06.766Z,87.18
2023-04-11T21:36:36.508Z,80.25
2023-04-11T21:39:03.899Z,99.13
2023-04-11T21:41:31.406Z,77.85
2023-04-11T21:43:58.894Z,87.07
2023-04-11T21:46:26.561Z,80.07
2023-04-11T21:48:53.932Z,84.90
2023-04-11T21:51:21.285Z,84.35
2023-04-11T21:53:48.586Z,85.75
2023-04-11T21:56:16.153Z,78.13
2023-04-11T21:58:43.446Z,77.53
2023-04-11T22:01:11.838Z,69.43
2023-04-11T22:03:42.634Z,68.95
2023-04-11T22:06:11.214Z,71.07
2023-04-11T22:08:39.391Z,61.08
2023-04-11T22:11:14.391Z,84.90
2023-04-11T22:13:46.474Z,81.82
2023-04-11T22:16:14.393Z,72.60
2023-04-11T22:18:49.190Z,86.63
2023-04-11T22:21:21.113Z,86.78
2023-04-11T22:23:55.735Z,85.07
2023-04-11T22:26:34.188Z,76.97
2023-04-11T22:29:05.481Z,88.85
2023-04-11T22:31:38.980Z,86.88
2023-04-11T22:34:08.292Z,88.15
2023-04-11T22:36:36.140Z,79.10
2023-04-11T22:39:07.415Z,73.95
2023-04-11T22:41:38.723Z,54.88
2023-04-11T22:44:06.704Z,65.55
2023-04-11T22:46:38.924Z,53.00
2023-04-11T22:49:07.000Z,77.00
2023-04-11T22:51:34.362Z,85.97
2023-04-11T22:54:02.489Z,81.85
2023-04-11T22:56:29.806Z,50.63
2023-04-11T22:58:57.111Z,65.10
2023-04-11T23:01:24.842Z,60.67
2023-04-11T23:03:52.244Z,67.47
2023-04-11T23:06:19.626Z,65.00
2023-04-11T23:08:47.642Z,76.47
2023-04-11T23:11:14.890Z,74.45
2023-04-11T23:13:42.356Z,55.22
2023-04-11T23:16:09.737Z,57.58
2023-04-11T23:18:37.059Z,65.80
2023-04-11T23:21:04.879Z,64.35
2023-04-11T23:23:32.235Z,77.85
2023-04-11T23:26:00.205Z,98.88
2023-04-11T23:28:27.562Z,79.32
2023-04-11T23:30:55.226Z,60.90
2023-04-11T23:33:22.544Z,51.67
2023-04-11T23:35:50.016Z,57.67
2023-04-11T23:38:17.350Z,53.17
2023-04-11T23:40:45.306Z,71.57
2023-04-11T23:43:15.778Z,58.33
2023-04-11T23:45:43.062Z,49.53
2023-04-11T23:48:10.598Z,49.13
2023-04-11T23:50:38.207Z,51.03
2023-04-11T23:53:05.829Z,48.22
2023-04-11T23:55:33.232Z,49.17
2023-04-11T23:58:00.646Z,60.58
